createdAt,value
2022-07-27T00:02:29.431Z,15.34
2022-07-27T00:04:59.070Z,15.28
2022-07-27T00:07:28.614Z,15.24
2022-07-27T00:09:58.293Z,15.18
2022-07-27T00:12:29.247Z,15.16
2022-07-27T00:14:59.310Z,15.12
2022-07-27T00:17:29.063Z,15.08
2022-07-27T00:19:58.761Z,15.04
2022-07-27T00:22:28.493Z,15.03
2022-07-27T00:24:58.075Z,15.02
2022-07-27T00:27:29.009Z,15.02
2022-07-27T00:29:58.613Z,15.07
2022-07-27T00:32:28.185Z,15.13
2022-07-27T00:34:57.688Z,15.16
2022-07-27T00:37:27.519Z,15.16
2022-07-27T00:39:57.026Z,15.08
2022-07-27T00:42:28.124Z,15.04
2022-07-27T00:44:59.436Z,14.99
2022-07-27T00:47:29.113Z,14.94
2022-07-27T00:49:59.877Z,14.90
2022-07-27T00:52:31.187Z,14.86
2022-07-27T00:55:01.194Z,14.85
2022-07-27T00:57:31.097Z,14.82
2022-07-27T01:00:02.165Z,14.85
2022-07-27T01:02:31.965Z,14.83
2022-07-27T01:05:01.964Z,14.82
2022-07-27T01:07:32.277Z,14.84
2022-07-27T01:10:01.966Z,14.82
2022-07-27T01:12:33.175Z,14.80
2022-07-27T01:15:04.967Z,14.74
2022-07-27T01:17:34.707Z,14.72
2022-07-27T01:20:06.505Z,14.68
2022-07-27T01:22:37.508Z,14.65
2022-07-27T01:25:08.554Z,14.60
2022-07-27T01:27:38.225Z,14.57
2022-07-27T01:30:26.412Z,14.54
2022-07-27T01:33:02.770Z,14.50
2022-07-27T01:35:32.874Z,14.49
2022-07-27T01:38:04.722Z,14.44
2022-07-27T01:40:36.634Z,14.44
2022-07-27T01:43:06.623Z,14.41
2022-07-27T01:45:36.256Z,14.40
2022-07-27T01:48:06.664Z,14.38
2022-07-27T01:50:36.323Z,14.39
2022-07-27T01:53:09.246Z,14.40
2022-07-27T01:55:40.460Z,14.40
2022-07-27T01:58:10.789Z,14.44
2022-07-27T02:00:40.654Z,14.48
2022-07-27T02:03:12.593Z,14.56
2022-07-27T02:05:42.320Z,14.52
2022-07-27T02:08:13.617Z,14.52
2022-07-27T02:10:58.343Z,14.55
2022-07-27T02:13:28.323Z,14.54
2022-07-27T02:15:59.113Z,14.55
2022-07-27T02:18:35.909Z,14.57
2022-07-27T02:21:07.586Z,14.59
2022-07-27T02:23:40.437Z,14.63
2022-07-27T02:26:10.657Z,14.70
2022-07-27T02:28:40.129Z,14.79
2022-07-27T02:31:09.729Z,14.80
2022-07-27T02:33:39.311Z,14.75
2022-07-27T02:36:09.028Z,14.71
2022-07-27T02:38:39.974Z,14.73
2022-07-27T02:41:09.618Z,14.73
2022-07-27T02:43:39.174Z,14.75
2022-07-27T02:46:08.839Z,14.82
2022-07-27T02:48:38.536Z,14.81
2022-07-27T02:51:08.239Z,14.84
2022-07-27T02:53:39.152Z,14.86
2022-07-27T02:56:08.959Z,14.87
2022-07-27T02:58:38.567Z,14.87
2022-07-27T03:01:09.155Z,14.87
2022-07-27T03:03:39.557Z,14.87
2022-07-27T03:06:11.753Z,14.89
2022-07-27T03:08:42.667Z,14.88
2022-07-27T03:11:12.250Z,14.90
2022-07-27T03:13:42.144Z,14.90
2022-07-27T03:16:11.768Z,14.88
2022-07-27T03:18:41.426Z,14.92
2022-07-27T03:21:10.986Z,14.96
2022-07-27T03:23:42.513Z,14.99
2022-07-27T03:26:12.265Z,15.05
2022-07-27T03:28:41.912Z,15.06
2022-07-27T03:31:11.599Z,15.05
2022-07-27T03:33:41.192Z,15.04
2022-07-27T03:36:10.722Z,15.05
2022-07-27T03:38:40.290Z,15.04
2022-07-27T03:41:11.338Z,15.07
2022-07-27T03:43:40.971Z,15.05
2022-07-27T03:46:12.568Z,15.09
2022-07-27T03:48:42.197Z,15.13
2022-07-27T03:51:11.782Z,15.15
2022-07-27T03:53:41.350Z,15.18
2022-07-27T03:56:12.034Z,15.16
2022-07-27T03:58:42.929Z,15.15
2022-07-27T04:01:12.475Z,15.10
2022-07-27T04:03:44.376Z,15.02
2022-07-27T04:06:13.943Z,14.98
2022-07-27T04:08:43.333Z,14.92
2022-07-27T04:11:14.296Z,14.85
2022-07-27T04:13:50.099Z,14.81
2022-07-27T04:16:19.779Z,14.78
2022-07-27T04:18:49.550Z,14.79
2022-07-27T04:21:19.077Z,14.84
2022-07-27T04:23:48.607Z,14.90
2022-07-27T04:26:19.489Z,14.94
2022-07-27T04:28:48.919Z,14.97
2022-07-27T04:31:18.427Z,15.01
2022-07-27T04:33:48.104Z,15.02
2022-07-27T04:36:17.979Z,15.03
2022-07-27T04:38:47.395Z,15.01
2022-07-27T04:41:18.244Z,14.99
2022-07-27T04:43:47.714Z,14.99
2022-07-27T04:46:17.291Z,14.97
2022-07-27T04:48:48.974Z,14.96
2022-07-27T04:51:19.687Z,14.96
2022-07-27T04:53:53.503Z,14.93
2022-07-27T04:56:28.908Z,14.92
2022-07-27T04:58:58.300Z,14.93
2022-07-27T05:01:33.102Z,14.92
2022-07-27T05:04:05.497Z,14.95
2022-07-27T05:07:01.898Z,14.98
2022-07-27T05:09:31.295Z,15.01
2022-07-27T05:12:02.614Z,15.03
2022-07-27T05:14:32.878Z,15.06
2022-07-27T05:17:02.424Z,15.10
2022-07-27T05:19:40.118Z,15.18
2022-07-27T05:22:12.281Z,15.27
2022-07-27T05:24:43.725Z,15.31
2022-07-27T05:27:14.489Z,15.39
2022-07-27T05:30:41.771Z,15.43
2022-07-27T05:32:54.693Z,15.52
2022-07-27T05:35:24.102Z,15.57
2022-07-27T05:37:53.533Z,15.63
2022-07-27T05:40:24.039Z,15.69
2022-07-27T05:42:54.819Z,15.77
2022-07-27T05:45:26.161Z,15.83
2022-07-27T05:47:55.803Z,15.89
2022-07-27T05:50:29.314Z,15.96
2022-07-27T05:52:58.822Z,16.03
2022-07-27T05:55:28.640Z,16.11
2022-07-27T05:57:59.457Z,16.21
2022-07-27T06:00:30.781Z,16.27
2022-07-27T06:03:01.633Z,16.36
2022-07-27T06:05:32.427Z,16.46
2022-07-27T06:08:28.309Z,16.54
2022-07-27T06:10:57.853Z,16.62
2022-07-27T06:13:31.539Z,16.69
2022-07-27T06:16:02.487Z,16.81
2022-07-27T06:18:32.348Z,16.89
2022-07-27T06:21:03.024Z,16.95
2022-07-27T06:23:32.825Z,17.03
2022-07-27T06:26:02.580Z,17.10
2022-07-27T06:28:34.612Z,17.17
2022-07-27T06:31:04.272Z,17.22
2022-07-27T06:33:36.385Z,17.29
2022-07-27T06:36:08.382Z,17.33
2022-07-27T06:38:38.139Z,17.42
2022-07-27T06:41:07.639Z,17.49
2022-07-27T06:43:38.745Z,17.58
2022-07-27T06:46:12.548Z,17.72
2022-07-27T06:48:42.972Z,17.86
2022-07-27T06:51:12.655Z,18.04
2022-07-27T06:53:42.166Z,18.21
2022-07-27T06:56:11.951Z,18.38
2022-07-27T06:58:42.930Z,18.50
2022-07-27T07:01:12.570Z,18.57
2022-07-27T07:03:42.187Z,18.66
2022-07-27T07:06:12.070Z,18.79
2022-07-27T07:08:41.733Z,18.89
2022-07-27T07:11:12.342Z,19.00
2022-07-27T07:13:45.051Z,19.11
2022-07-27T07:16:14.839Z,19.17
2022-07-27T07:18:47.731Z,19.22
2022-07-27T07:21:19.581Z,19.26
2022-07-27T07:23:48.891Z,19.38
2022-07-27T07:26:18.181Z,19.48
2022-07-27T07:28:48.740Z,19.58
2022-07-27T07:31:19.832Z,19.63
2022-07-27T07:33:49.107Z,19.68
2022-07-27T07:36:18.710Z,19.72
2022-07-27T07:38:47.974Z,19.78
2022-07-27T07:41:17.367Z,19.81
2022-07-27T07:43:48.971Z,19.85
2022-07-27T07:46:18.592Z,19.88
2022-07-27T07:48:47.929Z,19.87
2022-07-27T07:51:17.447Z,19.93
2022-07-27T07:53:46.781Z,20.00
2022-07-27T07:56:16.411Z,20.09
2022-07-27T07:58:45.632Z,20.14
2022-07-27T08:01:16.312Z,20.26
2022-07-27T08:03:50.855Z,20.36
2022-07-27T08:06:20.723Z,20.57
2022-07-27T08:08:52.017Z,20.78
2022-07-27T08:11:21.323Z,20.93
2022-07-27T08:13:50.544Z,21.04
2022-07-27T08:16:21.251Z,21.16
2022-07-27T08:18:50.588Z,21.24
2022-07-27T08:21:20.022Z,21.33
2022-07-27T08:23:49.280Z,21.44
2022-07-27T08:26:18.736Z,21.59
2022-07-27T08:28:47.935Z,21.67
2022-07-27T08:31:24.562Z,21.78
2022-07-27T08:33:56.037Z,21.99
2022-07-27T08:36:25.216Z,22.14
2022-07-27T08:38:54.442Z,22.32
2022-07-27T08:41:26.281Z,22.47
2022-07-27T08:43:55.889Z,22.54
2022-07-27T08:46:28.218Z,22.58
2022-07-27T08:48:57.890Z,22.72
2022-07-27T08:51:27.084Z,23.01
2022-07-27T08:53:57.128Z,23.23
2022-07-27T08:56:26.672Z,23.47
2022-07-27T08:58:55.982Z,23.53
2022-07-27T09:01:26.584Z,23.58
2022-07-27T09:03:55.895Z,23.46
2022-07-27T09:06:52.885Z,23.35
2022-07-27T09:09:23.696Z,23.20
2022-07-27T09:12:08.300Z,23.12
2022-07-27T09:14:40.881Z,23.18
2022-07-27T09:20:20.052Z,23.61
2022-07-27T09:22:52.425Z,23.71
2022-07-27T09:25:44.876Z,23.83
2022-07-27T09:28:13.063Z,24.05
2022-07-27T09:30:43.794Z,24.20
2022-07-27T09:33:17.304Z,24.23
2022-07-27T09:35:59.098Z,24.29
2022-07-27T09:38:28.281Z,24.43
2022-07-27T09:41:00.879Z,24.51
2022-07-27T09:46:33.225Z,24.39
2022-07-27T09:49:05.183Z,24.32
2022-07-27T09:52:02.246Z,24.25
2022-07-27T09:54:47.103Z,24.29
2022-07-27T09:57:17.876Z,24.29
2022-07-27T09:59:47.433Z,24.46
2022-07-27T10:02:16.905Z,24.66
2022-07-27T10:06:01.179Z,24.86
2022-07-27T10:08:32.793Z,24.92
2022-07-27T10:11:04.130Z,24.89
2022-07-27T10:13:43.808Z,25.02
2022-07-27T10:16:17.489Z,25.21
2022-07-27T10:19:01.096Z,25.41
2022-07-27T10:21:35.146Z,25.47
2022-07-27T10:24:09.561Z,25.42
2022-07-27T10:26:41.301Z,25.40
2022-07-27T10:29:19.248Z,25.18
2022-07-27T10:32:00.381Z,25.18
2022-07-27T10:34:38.873Z,25.25
2022-07-27T10:37:13.148Z,25.17
2022-07-27T10:39:45.781Z,25.15
2022-07-27T10:42:28.619Z,24.92
2022-07-27T10:45:02.392Z,24.90
2022-07-27T10:47:35.343Z,24.96
2022-07-27T10:50:31.222Z,25.03
2022-07-27T10:53:11.177Z,25.15
2022-07-27T10:55:48.651Z,25.30
2022-07-27T10:58:47.683Z,25.45
2022-07-27T11:01:19.080Z,25.24
2022-07-27T11:03:52.607Z,25.06
2022-07-27T11:06:41.872Z,25.23
2022-07-27T11:10:02.889Z,25.45
2022-07-27T11:12:10.445Z,25.83
2022-07-27T11:14:50.635Z,26.25
2022-07-27T11:20:13.353Z,26.61
2022-07-27T11:23:26.666Z,26.47
2022-07-27T11:25:32.821Z,26.12
2022-07-27T11:28:07.199Z,25.82
2022-07-27T11:30:37.085Z,25.63
2022-07-27T11:33:07.233Z,25.48
2022-07-27T11:35:36.709Z,25.28
2022-07-27T11:38:07.687Z,25.13
2022-07-27T11:40:57.329Z,25.12
2022-07-27T11:43:36.865Z,25.09
2022-07-27T11:46:15.099Z,25.05
2022-07-27T11:49:09.339Z,24.95
2022-07-27T11:51:47.992Z,24.95
2022-07-27T11:54:22.258Z,24.95
2022-07-27T11:56:54.455Z,24.79
2022-07-27T11:59:27.134Z,24.76
2022-07-27T12:01:59.708Z,24.77
2022-07-27T12:04:30.919Z,24.71
2022-07-27T12:07:08.047Z,24.75
2022-07-27T12:09:40.164Z,24.80
2022-07-27T12:12:15.169Z,24.94
2022-07-27T12:14:48.745Z,25.52
2022-07-27T12:17:29.620Z,26.12
2022-07-27T12:20:05.446Z,26.55
2022-07-27T12:22:38.688Z,27.01
2022-07-27T12:25:16.198Z,27.44
2022-07-27T12:27:57.346Z,27.76
2022-07-27T12:30:33.671Z,28.27
2022-07-27T12:33:05.575Z,28.78
2022-07-27T12:35:46.543Z,28.82
2022-07-27T12:38:16.353Z,28.63
2022-07-27T12:40:48.280Z,28.54
2022-07-27T12:43:20.262Z,28.12
2022-07-27T12:45:52.697Z,27.61
2022-07-27T12:48:26.351Z,27.26
2022-07-27T12:51:02.408Z,26.96
2022-07-27T12:53:32.787Z,26.76
2022-07-27T12:56:06.050Z,26.83
2022-07-27T12:58:37.156Z,26.77
2022-07-27T13:01:07.921Z,26.60
2022-07-27T13:03:37.271Z,26.55
2022-07-27T13:06:12.469Z,26.62
2022-07-27T13:08:42.346Z,26.82
2022-07-27T13:11:11.677Z,27.12
2022-07-27T13:13:43.199Z,27.39
2022-07-27T13:16:13.820Z,27.50
2022-07-27T13:18:43.103Z,27.44
2022-07-27T13:21:12.277Z,27.21
2022-07-27T13:23:41.497Z,26.94
2022-07-27T13:26:10.693Z,26.74
2022-07-27T13:28:40.238Z,26.56
2022-07-27T13:31:09.674Z,26.13
2022-07-27T13:33:40.380Z,25.80
2022-07-27T13:36:09.818Z,25.56
2022-07-27T13:38:39.085Z,25.43
2022-07-27T13:41:09.559Z,25.34
2022-07-27T13:43:38.850Z,25.20
2022-07-27T13:46:10.361Z,25.15
2022-07-27T13:48:41.159Z,25.08
2022-07-27T13:51:10.392Z,25.24
2022-07-27T13:53:39.624Z,25.33
2022-07-27T13:56:08.848Z,25.36
2022-07-27T13:58:40.887Z,25.44
2022-07-27T14:01:10.315Z,25.81
2022-07-27T14:03:41.036Z,25.88
2022-07-27T14:06:10.345Z,25.94
2022-07-27T14:08:40.921Z,26.12
2022-07-27T14:11:10.142Z,26.21
2022-07-27T14:13:39.834Z,26.19
2022-07-27T14:16:10.065Z,26.14
2022-07-27T14:18:40.817Z,26.09
2022-07-27T14:21:10.602Z,26.08
2022-07-27T14:23:39.866Z,26.03
2022-07-27T14:26:10.390Z,25.98
2022-07-27T14:28:42.920Z,25.92
2022-07-27T14:31:13.232Z,25.90
2022-07-27T14:33:43.928Z,25.74
2022-07-27T14:36:13.308Z,25.68
2022-07-27T14:38:44.189Z,25.76
2022-07-27T14:41:13.404Z,26.04
2022-07-27T14:43:42.606Z,26.47
2022-07-27T14:46:11.849Z,26.90
2022-07-27T14:49:11.018Z,27.28
2022-07-27T14:51:31.801Z,27.64
2022-07-27T14:54:01.063Z,27.66
2022-07-27T14:56:30.488Z,27.75
2022-07-27T14:58:59.743Z,27.77
2022-07-27T15:01:29.148Z,27.68
2022-07-27T15:03:58.449Z,27.62
2022-07-27T15:06:27.854Z,27.47
2022-07-27T15:08:58.448Z,27.21
2022-07-27T15:11:27.733Z,27.10
2022-07-27T15:13:57.681Z,26.96
2022-07-27T15:16:27.053Z,27.33
2022-07-27T15:18:56.360Z,27.81
2022-07-27T15:21:25.615Z,27.98
2022-07-27T15:23:55.058Z,28.27
2022-07-27T15:26:25.690Z,28.32
2022-07-27T15:28:55.041Z,28.61
2022-07-27T15:31:24.440Z,28.66
2022-07-27T15:33:53.792Z,28.72
2022-07-27T15:36:32.101Z,28.84
2022-07-27T15:39:03.341Z,29.03
2022-07-27T15:41:37.146Z,29.16
2022-07-27T15:44:07.068Z,29.02
2022-07-27T15:46:36.325Z,29.04
2022-07-27T15:49:05.926Z,28.91
2022-07-27T15:51:35.295Z,28.90
2022-07-27T15:54:04.778Z,28.85
2022-07-27T15:56:35.471Z,28.62
2022-07-27T15:59:05.265Z,28.29
2022-07-27T16:01:35.330Z,28.06
2022-07-27T16:04:06.456Z,27.67
2022-07-27T16:06:39.349Z,27.45
2022-07-27T16:09:10.365Z,27.24
2022-07-27T16:11:41.821Z,27.06
2022-07-27T16:14:11.187Z,26.72
2022-07-27T16:16:40.619Z,26.55
2022-07-27T16:19:14.125Z,26.44
2022-07-27T16:21:54.118Z,26.24
2022-07-27T16:24:26.793Z,25.86
2022-07-27T16:26:57.626Z,25.64
2022-07-27T16:29:28.083Z,25.44
2022-07-27T16:31:58.964Z,25.28
2022-07-27T16:34:30.769Z,25.09
2022-07-27T16:37:00.666Z,24.92
2022-07-27T16:39:30.025Z,24.80
2022-07-27T16:42:00.660Z,24.65
2022-07-27T16:44:29.934Z,24.56
2022-07-27T16:46:59.272Z,24.52
2022-07-27T16:49:36.266Z,24.59
2022-07-27T16:52:06.999Z,24.71
2022-07-27T16:54:39.694Z,24.85
2022-07-27T16:57:11.438Z,24.96
2022-07-27T16:59:41.628Z,25.04
2022-07-27T17:02:11.313Z,25.11
2022-07-27T17:04:40.721Z,25.21
2022-07-27T17:07:12.675Z,25.13
2022-07-27T17:09:42.597Z,25.10
2022-07-27T17:12:17.165Z,25.04
2022-07-27T17:14:47.261Z,24.91
2022-07-27T17:17:16.741Z,24.82
2022-07-27T17:19:46.105Z,24.76
2022-07-27T17:22:15.344Z,24.68
2022-07-27T17:24:44.691Z,24.64
2022-07-27T17:27:15.268Z,24.57
2022-07-27T17:29:44.670Z,24.51
2022-07-27T17:32:14.021Z,24.41
2022-07-27T17:34:45.543Z,24.28
2022-07-27T17:37:15.245Z,24.20
2022-07-27T17:39:44.749Z,24.10
2022-07-27T17:42:15.354Z,23.98
2022-07-27T17:44:44.730Z,23.84
2022-07-27T17:47:14.090Z,23.76
2022-07-27T17:49:43.791Z,23.62
2022-07-27T17:52:13.244Z,23.53
2022-07-27T17:54:42.696Z,23.45
2022-07-27T17:57:12.046Z,23.35
2022-07-27T17:59:43.038Z,23.28
2022-07-27T18:02:13.367Z,23.24
2022-07-27T18:04:42.770Z,23.19
2022-07-27T18:07:12.100Z,23.14
2022-07-27T18:09:41.452Z,23.10
2022-07-27T18:12:10.820Z,23.04
2022-07-27T18:15:00.023Z,22.95
2022-07-27T18:17:30.650Z,22.82
2022-07-27T18:19:59.904Z,22.71
2022-07-27T18:22:29.082Z,22.61
2022-07-27T18:24:58.421Z,22.50
2022-07-27T18:27:28.901Z,22.33
2022-07-27T18:29:58.190Z,22.21
2022-07-27T18:32:27.462Z,22.10
2022-07-27T18:34:58.233Z,21.96
2022-07-27T18:37:27.581Z,21.77
2022-07-27T18:39:56.928Z,21.60
2022-07-27T18:42:26.173Z,21.41
2022-07-27T18:44:55.333Z,21.21
2022-07-27T18:47:24.600Z,21.02
2022-07-27T18:49:53.893Z,20.82
2022-07-27T18:52:24.561Z,20.64
2022-07-27T18:54:53.828Z,20.49
2022-07-27T18:57:23.083Z,20.36
2022-07-27T18:59:53.399Z,20.22
2022-07-27T19:02:23.425Z,20.08
2022-07-27T19:04:53.876Z,19.95
2022-07-27T19:07:25.780Z,19.83
2022-07-27T19:09:57.815Z,19.70
2022-07-27T19:12:27.418Z,19.62
2022-07-27T19:14:57.985Z,19.55
2022-07-27T19:17:27.358Z,19.49
2022-07-27T19:19:56.725Z,19.49
2022-07-27T19:22:27.828Z,19.51
2022-07-27T19:24:57.157Z,19.60
2022-07-27T19:27:26.481Z,19.70
2022-07-27T19:29:55.960Z,19.78
2022-07-27T19:32:26.743Z,19.86
2022-07-27T19:34:56.133Z,19.97
2022-07-27T19:37:29.714Z,20.05
2022-07-27T19:40:14.343Z,20.10
2022-07-27T19:42:48.398Z,20.14
2022-07-27T19:45:17.725Z,20.17
2022-07-27T19:47:46.970Z,20.19
2022-07-27T19:50:16.371Z,20.19
2022-07-27T19:52:47.101Z,20.21
2022-07-27T19:55:16.909Z,20.20
2022-07-27T19:57:46.343Z,20.17
2022-07-27T20:00:17.131Z,20.15
2022-07-27T20:02:49.448Z,20.12
2022-07-27T20:05:18.899Z,20.10
2022-07-27T20:07:50.766Z,20.07
2022-07-27T20:10:22.505Z,20.04
2022-07-27T20:12:52.118Z,20.01
2022-07-27T20:15:22.777Z,19.96
2022-07-27T20:17:52.401Z,19.90
2022-07-27T20:20:21.795Z,19.84
2022-07-27T20:22:52.623Z,19.78
2022-07-27T20:25:23.309Z,19.73
2022-07-27T20:27:53.904Z,19.68
2022-07-27T20:30:23.343Z,19.63
2022-07-27T20:32:52.909Z,19.60
2022-07-27T20:35:22.314Z,19.54
2022-07-27T20:37:57.913Z,19.47
2022-07-27T20:40:27.566Z,19.39
2022-07-27T20:42:56.927Z,19.30
2022-07-27T20:45:27.246Z,19.24
2022-07-27T20:47:57.598Z,19.22
2022-07-27T20:50:26.976Z,19.14
2022-07-27T20:52:58.089Z,19.03
2022-07-27T20:55:28.566Z,18.92
2022-07-27T20:57:57.808Z,18.79
2022-07-27T21:00:29.318Z,18.68
2022-07-27T21:02:58.777Z,18.57
2022-07-27T21:05:28.374Z,18.48
2022-07-27T21:07:59.025Z,18.42
2022-07-27T21:10:28.320Z,18.37
2022-07-27T21:12:58.477Z,18.38
2022-07-27T21:15:33.802Z,18.38
2022-07-27T21:18:03.974Z,18.42
2022-07-27T21:20:34.331Z,18.44
2022-07-27T21:23:22.600Z,18.44
2022-07-27T21:25:52.342Z,18.38
2022-07-27T21:28:24.722Z,18.37
2022-07-27T21:30:54.272Z,18.33
2022-07-27T21:33:23.581Z,18.27
2022-07-27T21:35:52.865Z,18.22
2022-07-27T21:38:23.449Z,18.18
2022-07-27T21:40:52.769Z,18.12
2022-07-27T21:43:21.941Z,18.00
2022-07-27T21:45:52.045Z,17.92
2022-07-27T21:48:21.395Z,17.82
2022-07-27T21:50:50.633Z,17.71
2022-07-27T21:53:19.889Z,17.60
2022-07-27T21:55:58.117Z,17.50
2022-07-27T21:58:28.608Z,17.42
2022-07-27T22:00:57.866Z,17.31
2022-07-27T22:03:27.130Z,17.19
2022-07-27T22:05:56.771Z,17.08
2022-07-27T22:08:26.018Z,16.93
2022-07-27T22:10:57.958Z,16.79
2022-07-27T22:13:27.632Z,16.64
2022-07-27T22:15:56.904Z,16.51
2022-07-27T22:18:26.219Z,16.39
2022-07-27T22:20:55.895Z,16.25
2022-07-27T22:23:25.787Z,16.12
2022-07-27T22:25:55.428Z,16.00
2022-07-27T22:28:28.756Z,15.89
2022-07-27T22:31:16.481Z,15.80
2022-07-27T22:33:47.297Z,15.67
2022-07-27T22:36:16.684Z,15.62
2022-07-27T22:38:46.308Z,15.53
2022-07-27T22:41:15.956Z,15.47
2022-07-27T22:43:46.588Z,15.42
2022-07-27T22:46:19.851Z,15.39
2022-07-27T22:48:51.780Z,15.34
2022-07-27T22:51:21.823Z,15.28
2022-07-27T22:53:52.590Z,15.24
2022-07-27T22:56:22.198Z,15.19
2022-07-27T22:58:52.967Z,15.16
2022-07-27T23:01:45.457Z,15.15
2022-07-27T23:04:12.145Z,15.16
2022-07-27T23:06:41.815Z,15.14
2022-07-27T23:09:11.217Z,15.13
2022-07-27T23:11:40.525Z,15.14
2022-07-27T23:14:11.844Z,15.12
2022-07-27T23:16:41.830Z,15.08
2022-07-27T23:20:06.344Z,15.04
2022-07-27T23:22:35.773Z,14.96
2022-07-27T23:25:07.174Z,14.92
2022-07-27T23:27:37.020Z,14.87
2022-07-27T23:30:10.786Z,14.80
2022-07-27T23:32:40.371Z,14.72
2022-07-27T23:35:11.080Z,14.66
2022-07-27T23:37:40.858Z,14.64
2022-07-27T23:40:12.630Z,14.61
2022-07-27T23:42:42.202Z,14.60
2022-07-27T23:45:13.752Z,14.59
2022-07-27T23:48:02.851Z,14.59
2022-07-27T23:50:32.368Z,14.59
2022-07-27T23:53:01.927Z,14.61
2022-07-27T23:55:31.622Z,14.61
2022-07-27T23:58:01.141Z,14.60
